LRTR

Timişoara Traian Vuia Airport

Timişoara, Romania
TAF LRTR 181100Z 1812/1912 VRB04KT 9999 SCT035 TEMPO 1812/1818 VRB15G25KT 5000 TSRA SCT030CB BECMG 1821/1823 5000 BR BECMG 1823/1901 1500 BR BKN005 PROB40 TEMPO 1901/1905 0600 FG BKN002 BECMG 1907/1909 5000 BKN015 BECMG 1909/1911 9999 NSW SCT040
Issued Valid From Valid To
Jun-18 @ 11:00 UTC
(2 hours ago)
Jun-18 @ 12:00 UTC
(an hour ago)
Jun-19 @ 12:00 UTC
(in 23 hours)
Jun-18 @ 12:00 to Jun-18 @ 21:00
TAF LRTR 181100Z 1812/1912 VRB04KT 9999 SCT035
Wind Visibility Clouds
Variable at 4 knots 10,000+ meters
  • Scattered at 3,500' AGL
Temporary Jun-18 @ 12:00 to Jun-18 @ 18:00
TEMPO 1812/1818 VRB15G25KT 5000 TSRA SCT030CB
Wind Visibility Clouds Conditions
Variable at 15 knots
 Gusting to 25 knots
5,005 meters
  • Scattered at 3,000' AGL
  • Thunderstorm
  • Rain
Becoming Jun-18 @ 21:00 to Jun-18 @ 23:00
BECMG 1821/1823 5000 BR
Wind Visibility Clouds Conditions
Variable at 4 knots 5,005 meters
  • Scattered at 3,500' AGL
  • Mist
Becoming Jun-18 @ 23:00 to Jun-19 @ 07:00
BECMG 1823/1901 1500 BR BKN005
Wind Visibility Clouds Conditions
Variable at 4 knots 1,497 meters
  • Broken at 500' AGL
  • Mist
Temporary  (Probability 40%) Jun-19 @ 01:00 to Jun-19 @ 05:00
PROB40 TEMPO 1901/1905 0600 FG BKN002
Visibility Clouds Conditions
595 meters
  • Broken at 200' AGL
  • Fog
Becoming Jun-19 @ 07:00 to Jun-19 @ 09:00
BECMG 1907/1909 5000 BKN015
Wind Visibility Clouds Conditions
Variable at 4 knots 5,005 meters
  • Broken at 1,500' AGL
  • Mist
Becoming Jun-19 @ 09:00 to Jun-19 @ 12:00
BECMG 1909/1911 9999 NSW SCT040
Wind Visibility Clouds Conditions
Variable at 4 knots 10,000+ meters
  • Scattered at 4,000' AGL
TAF LRTR 181100Z 1812/1912 VRB04KT 9999 SCT035 TEMPO 1812/1818 VRB15G25KT 5000 TSRA SCT030CB BECMG 1821/1823 5000 BR BECMG 1823/1901 1500 BR BKN005 PROB40 TEMPO 1901/1905 0600 FG BKN002 BECMG 1907/1909 5000 BKN015 BECMG 1909/1911 9999 NSW SCT040
Issued Jun-18 @ 11:00 UTC
(2 hours ago)
Valid From Jun-18 @ 12:00 UTC
(an hour ago)
Valid To Jun-19 @ 12:00 UTC
(in 23 hours)
Jun-18 @ 12:00 - Jun-18 @ 21:00
Wind Visibility
Variable at 4 knots 10,000+ meters
Clouds
  • Scattered at 3,500' AGL
Temporary Jun-18 @ 12:00 - Jun-18 @ 18:00
Wind Visibility
Variable at 15 knots
 Gusting to 25 knots
5,005 meters
Clouds
  • Scattered at 3,000' AGL
Conditions
  • Thunderstorm
  • Rain
Becoming Jun-18 @ 21:00 - Jun-18 @ 23:00
Wind Visibility
Variable at 4 knots 5,005 meters
Clouds
  • Scattered at 3,500' AGL
Conditions
  • Mist
Becoming Jun-18 @ 23:00 - Jun-19 @ 07:00
Wind Visibility
Variable at 4 knots 1,497 meters
Clouds
  • Broken at 500' AGL
Conditions
  • Mist
Probability 40% Temporary Jun-19 @ 01:00 - Jun-19 @ 05:00
Clouds
  • Broken at 200' AGL
Conditions
  • Fog
Becoming Jun-19 @ 07:00 - Jun-19 @ 09:00
Wind Visibility
Variable at 4 knots 5,005 meters
Clouds
  • Broken at 1,500' AGL
Conditions
  • Mist
Becoming Jun-19 @ 09:00 - Jun-19 @ 12:00
Wind Visibility
Variable at 4 knots 10,000+ meters
Clouds
  • Scattered at 4,000' AGL
Conditions